createdAt,value
2019-04-14T00:02:25.055Z,48.00
2019-04-14T00:07:27.688Z,49.00
2019-04-14T00:12:30.192Z,49.20
2019-04-14T00:17:39.170Z,48.30
2019-04-14T00:22:40.899Z,48.00
2019-04-14T00:27:43.470Z,47.10
2019-04-14T00:32:50.898Z,48.20
2019-04-14T00:37:59.471Z,47.30
2019-04-14T00:43:06.967Z,48.40
2019-04-14T00:48:16.156Z,48.20
2019-04-14T00:53:16.329Z,48.20
2019-04-14T00:58:19.199Z,47.10
2019-04-14T01:03:21.951Z,47.60
2019-04-14T01:08:24.838Z,47.80
2019-04-14T01:13:26.767Z,47.70
2019-04-14T01:18:29.837Z,48.20
2019-04-14T01:23:32.617Z,47.80
2019-04-14T01:28:35.357Z,46.90
2019-04-14T01:33:37.858Z,46.90
2019-04-14T01:38:40.605Z,46.80
2019-04-14T01:43:42.817Z,46.90
2019-04-14T01:48:45.397Z,47.00
2019-04-14T01:53:58.029Z,47.00
2019-04-14T01:59:02.138Z,48.80
2019-04-14T02:04:04.963Z,48.10
2019-04-14T02:09:07.924Z,48.50
2019-04-14T02:14:10.543Z,49.80
2019-04-14T02:19:13.260Z,48.80
2019-04-14T02:24:15.836Z,48.80
2019-04-14T02:29:19.013Z,48.60
2019-04-14T02:34:48.086Z,49.10
2019-04-14T02:39:54.451Z,48.10
2019-04-14T02:44:53.576Z,48.30
2019-04-14T02:49:56.581Z,48.00
2019-04-14T02:54:59.469Z,47.70
2019-04-14T03:00:07.780Z,47.80
2019-04-14T03:10:01.110Z,47.80
2019-04-14T03:15:08.126Z,47.70
2019-04-14T03:20:20.547Z,47.70
2019-04-14T03:25:22.595Z,47.70
2019-04-14T03:31:03.937Z,47.60
2019-04-14T03:36:26.323Z,47.70
2019-04-14T03:40:54.230Z,47.70
2019-04-14T03:50:55.933Z,47.70
2019-04-14T03:56:35.664Z,48.00
2019-04-14T04:01:39.103Z,48.40
2019-04-14T04:06:42.067Z,48.50
2019-04-14T04:11:43.527Z,48.40
2019-04-14T04:17:10.108Z,48.80
2019-04-14T04:22:23.668Z,49.20
2019-04-14T04:27:39.713Z,50.30
2019-04-14T04:32:55.820Z,51.00
2019-04-14T04:38:03.082Z,51.70
2019-04-14T04:43:05.855Z,52.00
2019-04-14T04:48:08.909Z,51.60
2019-04-14T04:53:11.530Z,52.30
2019-04-14T04:58:13.619Z,51.60
2019-04-14T05:03:16.860Z,51.50
2019-04-14T05:08:19.520Z,51.50
2019-04-14T05:13:27.045Z,52.30
2019-04-14T05:18:29.262Z,51.60
2019-04-14T05:23:32.151Z,51.50
2019-04-14T05:28:35.294Z,51.70
2019-04-14T05:33:38.214Z,51.40
2019-04-14T05:38:40.814Z,51.20
2019-04-14T05:43:48.952Z,51.60
2019-04-14T05:48:45.134Z,51.90
2019-04-14T05:53:48.084Z,51.80
2019-04-14T05:58:51.479Z,51.00
2019-04-14T06:03:53.939Z,52.40
2019-04-14T06:08:55.830Z,52.90
2019-04-14T06:13:58.474Z,51.10
2019-04-14T06:19:01.116Z,52.60
2019-04-14T06:24:03.788Z,54.10
2019-04-14T06:29:06.383Z,54.00
2019-04-14T06:34:14.273Z,54.20
2019-04-14T06:39:26.943Z,53.20
2019-04-14T06:44:29.670Z,51.90
2019-04-14T06:49:32.310Z,52.40
2019-04-14T06:54:34.919Z,53.90
2019-04-14T06:59:37.712Z,52.60
2019-04-14T07:04:40.342Z,53.40
2019-04-14T07:09:42.963Z,54.00
2019-04-14T07:14:45.576Z,52.30
2019-04-14T07:20:00.833Z,50.80
2019-04-14T07:24:51.168Z,52.40
2019-04-14T07:29:58.326Z,53.10
2019-04-14T07:35:06.575Z,52.40
2019-04-14T07:41:13.859Z,53.00
2019-04-14T07:47:23.206Z,54.00
2019-04-14T07:52:30.615Z,52.70
2019-04-14T07:57:57.952Z,52.20
2019-04-14T08:03:06.461Z,52.30
2019-04-14T08:08:10.416Z,51.00
2019-04-14T08:13:13.164Z,51.20
2019-04-14T08:18:16.100Z,52.30
2019-04-14T08:23:19.177Z,52.00
2019-04-14T08:28:21.923Z,51.20
2019-04-14T08:33:24.595Z,49.20
2019-04-14T08:38:27.300Z,46.80
2019-04-14T08:43:36.492Z,46.90
2019-04-14T08:49:04.918Z,48.60
2019-04-14T08:54:14.044Z,45.10
2019-04-14T08:59:26.266Z,45.10
2019-04-14T09:04:37.513Z,44.50
2019-04-14T09:09:42.636Z,43.70
2019-04-14T09:14:56.384Z,46.10
2019-04-14T09:19:48.027Z,43.00
2019-04-14T09:24:50.658Z,42.40
2019-04-14T09:29:53.296Z,42.10
2019-04-14T09:34:55.998Z,43.10
2019-04-14T09:39:58.668Z,42.60
2019-04-14T09:45:01.333Z,43.00
2019-04-14T09:50:04.539Z,43.70
2019-04-14T09:55:07.260Z,42.10
2019-04-14T10:00:10.048Z,44.10
2019-04-14T10:05:12.763Z,42.20
2019-04-14T10:10:15.474Z,43.60
2019-04-14T10:15:18.168Z,41.80
2019-04-14T10:20:20.850Z,38.80
2019-04-14T10:25:23.552Z,40.80
2019-04-14T10:30:26.242Z,40.60
2019-04-14T10:35:28.839Z,38.90
2019-04-14T10:40:31.537Z,39.50
2019-04-14T10:45:34.275Z,39.40
2019-04-14T10:50:36.954Z,38.40
2019-04-14T10:55:40.323Z,38.60
2019-04-14T11:00:43.161Z,39.10
2019-04-14T11:05:50.047Z,37.30
2019-04-14T11:10:52.678Z,35.00
2019-04-14T11:15:55.499Z,35.20
2019-04-14T11:20:58.122Z,36.60
2019-04-14T11:26:00.740Z,35.50
2019-04-14T11:31:03.527Z,34.50
2019-04-14T11:36:10.718Z,35.80
2019-04-14T11:41:16.938Z,35.10
2019-04-14T11:46:19.570Z,31.90
2019-04-14T11:51:22.201Z,31.90
2019-04-14T11:56:24.958Z,32.50
2019-04-14T12:01:48.191Z,31.50
2019-04-14T12:06:56.421Z,29.30
2019-04-14T12:11:59.219Z,30.10
2019-04-14T12:17:01.998Z,30.60
2019-04-14T12:22:08.412Z,30.50
2019-04-14T12:27:07.447Z,29.80
2019-04-14T12:32:10.738Z,32.50
2019-04-14T12:37:12.932Z,29.60
2019-04-14T12:42:53.642Z,30.80
2019-04-14T12:48:01.824Z,32.40
2019-04-14T12:53:04.664Z,29.80
2019-04-14T12:58:07.613Z,29.80
2019-04-14T13:03:10.362Z,30.60
2019-04-14T13:08:13.157Z,32.00
2019-04-14T13:13:16.638Z,30.40
2019-04-14T13:18:19.298Z,32.80
2019-04-14T13:23:21.949Z,30.30
2019-04-14T13:28:25.794Z,31.60
2019-04-14T13:33:28.389Z,33.00
2019-04-14T13:38:31.004Z,31.50
2019-04-14T13:43:33.615Z,34.20
2019-04-14T13:48:36.346Z,32.20
2019-04-14T13:53:39.036Z,34.10
2019-04-14T13:58:42.222Z,30.10
2019-04-14T14:03:45.010Z,32.70
2019-04-14T14:08:47.616Z,33.70
2019-04-14T14:13:55.766Z,35.40
2019-04-14T14:19:02.789Z,33.60
2019-04-14T14:24:09.988Z,33.20
2019-04-14T14:29:13.726Z,33.80
2019-04-14T14:34:16.286Z,35.80
2019-04-14T14:39:20.318Z,36.70
2019-04-14T14:44:23.320Z,36.90
2019-04-14T14:50:06.083Z,38.00
2019-04-14T14:55:08.860Z,37.60
2019-04-14T15:00:16.138Z,38.20
2019-04-14T15:05:18.748Z,36.80
2019-04-14T15:10:21.473Z,36.50
2019-04-14T15:15:24.136Z,36.00
2019-04-14T15:20:27.226Z,38.60
2019-04-14T15:25:29.805Z,37.10
2019-04-14T15:30:32.594Z,39.30
2019-04-14T15:35:35.263Z,37.40
2019-04-14T15:40:37.826Z,38.20
2019-04-14T15:45:40.573Z,39.70
2019-04-14T15:50:43.571Z,38.40
2019-04-14T15:55:46.168Z,41.40
2019-04-14T16:00:58.314Z,39.20
2019-04-14T16:06:05.749Z,39.90
2019-04-14T16:11:18.040Z,40.80
2019-04-14T16:18:29.284Z,40.80
2019-04-14T16:23:32.463Z,40.60
2019-04-14T16:28:40.952Z,41.10
2019-04-14T16:33:49.901Z,41.20
2019-04-14T16:38:52.774Z,43.90
2019-04-14T16:43:55.406Z,41.40
2019-04-14T16:48:58.038Z,41.80
2019-04-14T16:54:04.670Z,43.30
2019-04-14T16:59:11.984Z,45.60
2019-04-14T17:04:14.608Z,44.70
2019-04-14T17:09:17.170Z,44.70
2019-04-14T17:14:31.320Z,45.40
2019-04-14T17:19:45.542Z,45.40
2019-04-14T17:25:52.927Z,44.90
2019-04-14T17:31:01.304Z,45.20
2019-04-14T17:36:08.526Z,45.90
2019-04-14T17:41:22.640Z,46.50
2019-04-14T17:46:29.828Z,46.40
2019-04-14T17:51:37.202Z,47.90
2019-04-14T17:56:55.831Z,47.70
2019-04-14T18:02:04.382Z,47.50
2019-04-14T18:07:12.469Z,48.80
2019-04-14T18:12:20.639Z,47.90
2019-04-14T18:17:28.311Z,48.20
2019-04-14T18:22:30.988Z,47.70
2019-04-14T18:27:37.030Z,49.30
2019-04-14T18:32:44.399Z,48.80
2019-04-14T18:37:58.785Z,49.80
2019-04-14T18:43:10.093Z,49.30
2019-04-14T18:48:23.165Z,50.30
2019-04-14T18:53:31.205Z,49.90
2019-04-14T18:58:40.425Z,49.40
2019-04-14T19:03:43.135Z,51.00
2019-04-14T19:08:45.882Z,51.20
2019-04-14T19:13:49.013Z,50.50
2019-04-14T19:18:55.022Z,50.20
2019-04-14T19:23:57.812Z,50.70
2019-04-14T19:29:00.405Z,53.60
2019-04-14T19:34:02.976Z,51.20
2019-04-14T19:39:09.142Z,51.70
2019-04-14T19:44:11.764Z,51.10
2019-04-14T19:49:14.387Z,50.40
2019-04-14T19:54:16.988Z,50.80
2019-04-14T19:59:19.774Z,50.30
2019-04-14T20:04:22.400Z,49.00
2019-04-14T20:09:25.152Z,50.60
2019-04-14T20:14:27.806Z,52.00
2019-04-14T20:19:41.029Z,52.80
2019-04-14T20:24:51.012Z,51.90
2019-04-14T20:29:55.333Z,52.40
2019-04-14T20:34:57.941Z,52.30
2019-04-14T20:40:00.585Z,52.00
2019-04-14T20:45:03.689Z,52.50
2019-04-14T20:50:06.338Z,53.00
2019-04-14T20:55:09.042Z,53.60
2019-04-14T21:00:11.833Z,54.30
2019-04-14T21:05:20.018Z,53.00
2019-04-14T21:10:27.968Z,53.60
2019-04-14T21:15:37.098Z,54.20
2019-04-14T21:20:45.063Z,54.20
2019-04-14T21:26:09.544Z,54.00
2019-04-14T21:31:17.811Z,54.10
2019-04-14T21:36:25.113Z,54.20
2019-04-14T21:41:29.116Z,53.50
2019-04-14T21:46:31.723Z,53.90
2019-04-14T21:51:39.932Z,53.50
2019-04-14T21:56:42.732Z,53.90
2019-04-14T22:02:50.951Z,53.10
2019-04-14T22:08:01.122Z,53.60
2019-04-14T22:13:03.806Z,54.00
2019-04-14T22:18:06.433Z,54.60
2019-04-14T22:23:10.098Z,54.60
2019-04-14T22:28:12.710Z,54.80
2019-04-14T22:33:15.322Z,54.70
2019-04-14T22:38:17.905Z,54.80
2019-04-14T22:43:20.476Z,54.80
2019-04-14T22:48:23.132Z,54.20
2019-04-14T22:53:25.707Z,54.40
2019-04-14T22:58:28.334Z,54.30
2019-04-14T23:03:36.646Z,54.60
2019-04-14T23:08:44.028Z,53.60
2019-04-14T23:13:55.370Z,53.80
2019-04-14T23:19:06.111Z,54.20
2019-04-14T23:24:13.642Z,54.30
2019-04-14T23:29:16.222Z,54.30
2019-04-14T23:34:18.835Z,53.90
2019-04-14T23:39:21.415Z,54.00
2019-04-14T23:44:23.946Z,54.50
2019-04-14T23:49:26.496Z,54.90
2019-04-14T23:54:29.098Z,55.50
2019-04-14T23:59:31.672Z,55.90
